Wellington, CO

3:31 PM MDT on August 30, 2014 (GMT -0600)
Cheyenne F E Warren | Change Station
CLOSE
Current Station
Airport
Location: Cheyenne F E Warren,
Elevation: 6161 ft
Nearby Weather Stations

Elev 6161 ft 41.14 °N, 104.87 °W | Updated 35 minutes ago

Partly Cloudy
Partly Cloudy
82 °F
Feels Like 82 °F
N
12
Wind Variable Wind from SSW
Gusts 20 mph

Today
High -- | Low -- °F
--% Chance of Precip.
Yesterday
High -- | Low -- °F
Precip. -- in
6:25 AM 7:35 PM
Waxing Crescent, 24% visible
Pressure 29.71 in
Visibility 10.0 miles
Clouds Few 14000 ft
Dew Point 40 °F
Humidity 22%
Rainfall 0.00 in
Snow Depth Not available.
UV 7 out of 12
Pollen 10.20 out of 12
Ozone Good
PM2.5 Good
Flu Activity Not available.
METAR KFEW 302056Z AUTO 20010G17KT 10SM FEW140 28/05 A2994 RMK AO2 SLP061 T02780045 57022 $

More Conditions Fewer Conditions

Pressure 29.71 in
Visibility 10.0 miles
Clouds Few 14000 ft
Dew Point 40 °F
Humidity 22%
Rainfall 0.00 in
Snow Depth Not available.
UV 7 out of 12
Pollen 10.20 out of 12
Ozone Good
PM2.5 Good
Flu Activity Not available.
METAR KFEW 302056Z AUTO 20010G17KT 10SM FEW140 28/05 A2994 RMK AO2 SLP061 T02780045 57022 $

More Conditions Fewer Conditions

10-Day Weather Forecast

Almanac

Astronomy

Aug. 30, 2014 Rise Set
Actual Time 6:25 AM MDT 7:35 PM MDT
Civil Twilight 5:56 AM MDT 8:03 PM MDT
Nautical Twilight 5:23 AM MDT 8:37 PM MDT
Astronomical Twilight 4:47 AM MDT 9:12 PM MDT
Moon 11:17 AM MDT 10:09 PM MDT
Length of Visible Light 14h 06m
Length of Day
13h 10m
Tomorrow will be 2m 35s shorter.
Waxing Crescent, 24% of the Moon is Illuminated
Today
Waxing Crescent
Sep 2
First Quarter
Sep 8
Full
Sep 15
Last Quarter
Sep 24
New

Today's Extremes

State Highs State Lows

Community

WunderPhotos

Upload Photos

1,748,647 photos uploaded!

WunderBlogs® & News

Nearby

Air Quality

  Air Quality AQ Index Pollutant
Yesterday Good
OZONE
Yesterday Good
PM2.5
Current Good
OZONE
Current Good
PM2.5
Saturday Good
PM2.5
Saturday Good
OZONE
Sunday Good
PM2.5
Sunday Good
OZONE

Snow Depth

Station Depth Elevation
Willow Park 8 in 10700 ft
Joe Wright 0 in 10120 ft
Lake Irene 0 in 10700 ft
Rawah 13 in 9020 ft
Niwot 0 in 9910 ft

Earthquake Activity

City Distance Mag. Time & Date
No recent earthquake activity has been reported nearby.
Minimum magnitude displayed is 2.5.

Coastal Water Temperatures

Place Temperature
No Stations Reporting

Nearby Weather Stations